sensor_id;sensor_type;location;lat;lon;timestamp;temperature;humidity
52787;DHT22;38661;53.152;5.846;2023-02-28T00:00:20;4.40;88.70
52787;DHT22;38661;53.152;5.846;2023-02-28T00:02:47;4.40;88.80
52787;DHT22;38661;53.152;5.846;2023-02-28T00:05:15;4.40;88.80
52787;DHT22;38661;53.152;5.846;2023-02-28T00:07:41;4.40;88.90
52787;DHT22;38661;53.152;5.846;2023-02-28T00:10:09;4.30;88.90
52787;DHT22;38661;53.152;5.846;2023-02-28T00:12:36;4.30;88.80
52787;DHT22;38661;53.152;5.846;2023-02-28T00:15:04;4.30;88.80
52787;DHT22;38661;53.152;5.846;2023-02-28T00:17:30;4.30;88.70
52787;DHT22;38661;53.152;5.846;2023-02-28T00:19:57;4.30;88.80
52787;DHT22;38661;53.152;5.846;2023-02-28T00:22:30;4.20;88.80
52787;DHT22;38661;53.152;5.846;2023-02-28T00:24:56;4.30;88.90
52787;DHT22;38661;53.152;5.846;2023-02-28T00:27:22;4.30;88.60
52787;DHT22;38661;53.152;5.846;2023-02-28T00:29:48;4.20;88.90
52787;DHT22;38661;53.152;5.846;2023-02-28T00:32:13;4.30;88.70
52787;DHT22;38661;53.152;5.846;2023-02-28T00:34:39;4.30;88.60
52787;DHT22;38661;53.152;5.846;2023-02-28T00:37:06;4.30;88.70
52787;DHT22;38661;53.152;5.846;2023-02-28T00:39:33;4.30;88.80
52787;DHT22;38661;53.152;5.846;2023-02-28T00:41:59;4.30;88.80
52787;DHT22;38661;53.152;5.846;2023-02-28T00:44:25;4.30;88.90
52787;DHT22;38661;53.152;5.846;2023-02-28T00:46:51;4.30;88.90
52787;DHT22;38661;53.152;5.846;2023-02-28T00:49:17;4.30;88.90
52787;DHT22;38661;53.152;5.846;2023-02-28T00:51:43;4.30;88.80
52787;DHT22;38661;53.152;5.846;2023-02-28T00:54:08;4.30;88.90
52787;DHT22;38661;53.152;5.846;2023-02-28T00:56:34;4.30;88.80
52787;DHT22;38661;53.152;5.846;2023-02-28T00:59:00;4.30;88.90
52787;DHT22;38661;53.152;5.846;2023-02-28T01:01:25;4.30;89.00
52787;DHT22;38661;53.152;5.846;2023-02-28T01:03:51;4.30;89.20
52787;DHT22;38661;53.152;5.846;2023-02-28T01:06:17;4.30;89.60
52787;DHT22;38661;53.152;5.846;2023-02-28T01:08:42;4.30;89.40
52787;DHT22;38661;53.152;5.846;2023-02-28T01:11:10;4.40;89.40
52787;DHT22;38661;53.152;5.846;2023-02-28T01:13:36;4.40;89.30
52787;DHT22;38661;53.152;5.846;2023-02-28T01:16:02;4.40;89.40
52787;DHT22;38661;53.152;5.846;2023-02-28T01:18:27;4.40;89.60
52787;DHT22;38661;53.152;5.846;2023-02-28T01:20:54;4.40;89.50
52787;DHT22;38661;53.152;5.846;2023-02-28T01:23:20;4.40;89.80
52787;DHT22;38661;53.152;5.846;2023-02-28T01:25:47;4.50;89.70
52787;DHT22;38661;53.152;5.846;2023-02-28T01:28:13;4.50;89.60
52787;DHT22;38661;53.152;5.846;2023-02-28T01:30:38;4.50;89.70
52787;DHT22;38661;53.152;5.846;2023-02-28T01:33:04;4.50;89.70
52787;DHT22;38661;53.152;5.846;2023-02-28T01:35:35;4.50;89.60
52787;DHT22;38661;53.152;5.846;2023-02-28T01:38:02;4.60;89.60
52787;DHT22;38661;53.152;5.846;2023-02-28T01:40:28;4.60;89.10
52787;DHT22;38661;53.152;5.846;2023-02-28T01:42:53;4.60;89.40
52787;DHT22;38661;53.152;5.846;2023-02-28T01:45:26;4.50;89.70
52787;DHT22;38661;53.152;5.846;2023-02-28T01:47:56;4.50;89.40
52787;DHT22;38661;53.152;5.846;2023-02-28T01:50:26;4.50;89.40
52787;DHT22;38661;53.152;5.846;2023-02-28T01:52:56;4.50;89.60
52787;DHT22;38661;53.152;5.846;2023-02-28T01:55:24;4.60;89.80
52787;DHT22;38661;53.152;5.846;2023-02-28T01:57:56;4.60;89.20
52787;DHT22;38661;53.152;5.846;2023-02-28T02:00:25;4.60;89.50
52787;DHT22;38661;53.152;5.846;2023-02-28T02:02:58;4.60;89.90
52787;DHT22;38661;53.152;5.846;2023-02-28T02:05:30;4.60;90.10
52787;DHT22;38661;53.152;5.846;2023-02-28T02:08:15;4.60;90.30
52787;DHT22;38661;53.152;5.846;2023-02-28T02:10:48;4.60;90.30
52787;DHT22;38661;53.152;5.846;2023-02-28T02:32:54;4.60;90.60
52787;DHT22;38661;53.152;5.846;2023-02-28T02:35:31;4.60;90.50
52787;DHT22;38661;53.152;5.846;2023-02-28T02:43:20;4.60;90.60
52787;DHT22;38661;53.152;5.846;2023-02-28T02:45:56;4.60;90.70
52787;DHT22;38661;53.152;5.846;2023-02-28T02:48:26;4.60;90.30
52787;DHT22;38661;53.152;5.846;2023-02-28T02:50:56;4.60;90.30
52787;DHT22;38661;53.152;5.846;2023-02-28T02:53:32;4.70;90.30
52787;DHT22;38661;53.152;5.846;2023-02-28T02:56:01;4.70;90.10
52787;DHT22;38661;53.152;5.846;2023-02-28T02:58:32;4.70;90.80
52787;DHT22;38661;53.152;5.846;2023-02-28T03:01:01;4.70;90.40
52787;DHT22;38661;53.152;5.846;2023-02-28T03:03:29;4.70;90.60
52787;DHT22;38661;53.152;5.846;2023-02-28T03:06:00;4.70;90.90
52787;DHT22;38661;53.152;5.846;2023-02-28T03:08:27;4.70;90.80
52787;DHT22;38661;53.152;5.846;2023-02-28T03:11:03;4.70;91.20
52787;DHT22;38661;53.152;5.846;2023-02-28T03:13:52;4.70;91.30
52787;DHT22;38661;53.152;5.846;2023-02-28T03:27:30;4.80;91.40
52787;DHT22;38661;53.152;5.846;2023-02-28T03:30:26;4.80;91.10
52787;DHT22;38661;53.152;5.846;2023-02-28T03:33:06;4.80;91.40
52787;DHT22;38661;53.152;5.846;2023-02-28T03:35:48;4.80;91.50
52787;DHT22;38661;53.152;5.846;2023-02-28T03:38:23;4.80;91.50
52787;DHT22;38661;53.152;5.846;2023-02-28T03:41:01;4.80;91.60
52787;DHT22;38661;53.152;5.846;2023-02-28T03:43:29;4.80;91.40
52787;DHT22;38661;53.152;5.846;2023-02-28T03:46:01;4.80;91.50
52787;DHT22;38661;53.152;5.846;2023-02-28T03:48:48;4.90;91.60
52787;DHT22;38661;53.152;5.846;2023-02-28T03:51:20;4.80;91.70
52787;DHT22;38661;53.152;5.846;2023-02-28T03:53:52;4.80;91.70
52787;DHT22;38661;53.152;5.846;2023-02-28T03:56:32;4.90;91.80
52787;DHT22;38661;53.152;5.846;2023-02-28T04:01:53;4.90;91.40
52787;DHT22;38661;53.152;5.846;2023-02-28T04:04:20;4.90;91.70
52787;DHT22;38661;53.152;5.846;2023-02-28T04:06:50;4.90;91.70
52787;DHT22;38661;53.152;5.846;2023-02-28T04:09:16;4.90;91.70
52787;DHT22;38661;53.152;5.846;2023-02-28T04:11:52;4.90;91.90
52787;DHT22;38661;53.152;5.846;2023-02-28T04:14:18;4.90;91.70
52787;DHT22;38661;53.152;5.846;2023-02-28T04:16:44;4.90;91.70
52787;DHT22;38661;53.152;5.846;2023-02-28T04:19:11;4.90;91.70
52787;DHT22;38661;53.152;5.846;2023-02-28T04:21:42;4.90;91.80
52787;DHT22;38661;53.152;5.846;2023-02-28T04:24:11;4.90;91.70
52787;DHT22;38661;53.152;5.846;2023-02-28T04:26:41;4.80;91.90
52787;DHT22;38661;53.152;5.846;2023-02-28T04:29:10;4.90;91.80
52787;DHT22;38661;53.152;5.846;2023-02-28T04:31:36;4.90;91.90
52787;DHT22;38661;53.152;5.846;2023-02-28T04:34:02;4.90;92.00
52787;DHT22;38661;53.152;5.846;2023-02-28T04:36:28;4.90;91.90
52787;DHT22;38661;53.152;5.846;2023-02-28T04:38:54;4.90;92.00
52787;DHT22;38661;53.152;5.846;2023-02-28T04:41:21;4.90;92.10
52787;DHT22;38661;53.152;5.846;2023-02-28T04:43:47;4.90;92.10
52787;DHT22;38661;53.152;5.846;2023-02-28T04:46:13;4.90;92.00
52787;DHT22;38661;53.152;5.846;2023-02-28T04:48:39;4.90;91.90
52787;DHT22;38661;53.152;5.846;2023-02-28T04:51:08;5.00;91.90
52787;DHT22;38661;53.152;5.846;2023-02-28T04:53:34;5.00;91.90
52787;DHT22;38661;53.152;5.846;2023-02-28T04:56:00;5.00;92.00
52787;DHT22;38661;53.152;5.846;2023-02-28T04:58:26;5.00;91.90
52787;DHT22;38661;53.152;5.846;2023-02-28T05:00:54;5.00;92.20
52787;DHT22;38661;53.152;5.846;2023-02-28T05:03:20;5.00;92.30
52787;DHT22;38661;53.152;5.846;2023-02-28T05:05:47;5.00;92.20
52787;DHT22;38661;53.152;5.846;2023-02-28T05:08:13;5.00;92.10
52787;DHT22;38661;53.152;5.846;2023-02-28T05:10:39;5.00;92.30
52787;DHT22;38661;53.152;5.846;2023-02-28T05:13:05;5.00;92.20
52787;DHT22;38661;53.152;5.846;2023-02-28T05:15:31;5.00;92.10
52787;DHT22;38661;53.152;5.846;2023-02-28T05:17:56;5.00;92.40
52787;DHT22;38661;53.152;5.846;2023-02-28T05:20:22;5.10;92.60
52787;DHT22;38661;53.152;5.846;2023-02-28T05:22:49;5.10;92.70
52787;DHT22;38661;53.152;5.846;2023-02-28T05:25:20;5.10;92.30
52787;DHT22;38661;53.152;5.846;2023-02-28T05:27:47;5.00;92.30
52787;DHT22;38661;53.152;5.846;2023-02-28T05:30:13;5.00;92.40
52787;DHT22;38661;53.152;5.846;2023-02-28T05:32:40;5.10;92.70
52787;DHT22;38661;53.152;5.846;2023-02-28T05:35:12;5.10;92.90
52787;DHT22;38661;53.152;5.846;2023-02-28T05:37:38;5.00;92.90
52787;DHT22;38661;53.152;5.846;2023-02-28T05:40:05;5.00;92.90
52787;DHT22;38661;53.152;5.846;2023-02-28T05:42:32;5.00;92.80
52787;DHT22;38661;53.152;5.846;2023-02-28T05:44:58;4.90;92.80
52787;DHT22;38661;53.152;5.846;2023-02-28T05:47:24;4.90;92.80
52787;DHT22;38661;53.152;5.846;2023-02-28T05:49:50;4.80;92.90
52787;DHT22;38661;53.152;5.846;2023-02-28T05:52:16;4.70;93.00
52787;DHT22;38661;53.152;5.846;2023-02-28T05:54:41;4.60;93.10
52787;DHT22;38661;53.152;5.846;2023-02-28T05:57:07;4.60;93.40
52787;DHT22;38661;53.152;5.846;2023-02-28T05:59:33;4.50;93.20
52787;DHT22;38661;53.152;5.846;2023-02-28T06:01:59;4.50;93.00
52787;DHT22;38661;53.152;5.846;2023-02-28T06:04:25;4.50;93.10
52787;DHT22;38661;53.152;5.846;2023-02-28T06:06:51;4.50;92.90
52787;DHT22;38661;53.152;5.846;2023-02-28T06:09:17;4.30;92.90
52787;DHT22;38661;53.152;5.846;2023-02-28T06:11:44;4.20;92.80
52787;DHT22;38661;53.152;5.846;2023-02-28T06:14:20;4.10;92.80
52787;DHT22;38661;53.152;5.846;2023-02-28T06:16:46;4.00;92.90
52787;DHT22;38661;53.152;5.846;2023-02-28T06:19:11;3.90;93.10
52787;DHT22;38661;53.152;5.846;2023-02-28T06:21:38;3.80;93.20
52787;DHT22;38661;53.152;5.846;2023-02-28T06:24:04;3.70;93.40
52787;DHT22;38661;53.152;5.846;2023-02-28T06:26:30;3.70;93.50
52787;DHT22;38661;53.152;5.846;2023-02-28T06:28:56;3.60;93.20
52787;DHT22;38661;53.152;5.846;2023-02-28T06:31:22;3.60;93.30
52787;DHT22;38661;53.152;5.846;2023-02-28T06:33:49;3.50;93.30
52787;DHT22;38661;53.152;5.846;2023-02-28T06:36:16;3.50;93.30
52787;DHT22;38661;53.152;5.846;2023-02-28T06:38:42;3.40;93.30
52787;DHT22;38661;53.152;5.846;2023-02-28T06:41:08;3.30;93.50
52787;DHT22;38661;53.152;5.846;2023-02-28T06:43:41;3.30;93.30
52787;DHT22;38661;53.152;5.846;2023-02-28T06:46:10;3.30;93.50
52787;DHT22;38661;53.152;5.846;2023-02-28T06:48:36;3.30;93.60
52787;DHT22;38661;53.152;5.846;2023-02-28T06:51:10;3.20;93.70
52787;DHT22;38661;53.152;5.846;2023-02-28T06:53:36;3.20;93.70
52787;DHT22;38661;53.152;5.846;2023-02-28T06:56:07;3.20;93.60
52787;DHT22;38661;53.152;5.846;2023-02-28T06:58:33;3.10;93.70
52787;DHT22;38661;53.152;5.846;2023-02-28T07:00:59;3.10;93.50
52787;DHT22;38661;53.152;5.846;2023-02-28T07:03:25;3.10;93.70
52787;DHT22;38661;53.152;5.846;2023-02-28T07:05:51;3.10;93.50
52787;DHT22;38661;53.152;5.846;2023-02-28T07:08:16;3.10;93.30
52787;DHT22;38661;53.152;5.846;2023-02-28T07:10:42;3.00;93.70
52787;DHT22;38661;53.152;5.846;2023-02-28T07:13:09;3.00;93.40
52787;DHT22;38661;53.152;5.846;2023-02-28T07:15:38;3.00;93.60
52787;DHT22;38661;53.152;5.846;2023-02-28T07:18:04;2.90;93.80
52787;DHT22;38661;53.152;5.846;2023-02-28T07:20:30;2.90;93.60
52787;DHT22;38661;53.152;5.846;2023-02-28T07:22:56;2.80;93.80
52787;DHT22;38661;53.152;5.846;2023-02-28T07:25:23;2.70;94.20
52787;DHT22;38661;53.152;5.846;2023-02-28T07:27:49;2.70;94.20
52787;DHT22;38661;53.152;5.846;2023-02-28T07:30:15;2.70;94.10
52787;DHT22;38661;53.152;5.846;2023-02-28T07:32:41;2.70;94.00
52787;DHT22;38661;53.152;5.846;2023-02-28T07:35:07;2.70;93.90
52787;DHT22;38661;53.152;5.846;2023-02-28T07:37:32;2.70;93.70
52787;DHT22;38661;53.152;5.846;2023-02-28T07:40:03;2.70;93.70
52787;DHT22;38661;53.152;5.846;2023-02-28T07:42:32;2.70;93.70
52787;DHT22;38661;53.152;5.846;2023-02-28T07:44:57;2.80;93.80
52787;DHT22;38661;53.152;5.846;2023-02-28T07:47:24;2.70;94.30
52787;DHT22;38661;53.152;5.846;2023-02-28T07:49:50;2.60;94.60
52787;DHT22;38661;53.152;5.846;2023-02-28T07:52:16;2.60;94.60
52787;DHT22;38661;53.152;5.846;2023-02-28T07:54:41;2.60;94.60
52787;DHT22;38661;53.152;5.846;2023-02-28T07:57:07;2.60;94.60
52787;DHT22;38661;53.152;5.846;2023-02-28T07:59:33;2.60;94.60
52787;DHT22;38661;53.152;5.846;2023-02-28T08:01:59;2.60;94.60
52787;DHT22;38661;53.152;5.846;2023-02-28T08:04:25;2.70;94.60
52787;DHT22;38661;53.152;5.846;2023-02-28T08:06:51;2.70;94.80
52787;DHT22;38661;53.152;5.846;2023-02-28T08:09:19;2.70;94.60
52787;DHT22;38661;53.152;5.846;2023-02-28T08:11:44;2.70;94.20
52787;DHT22;38661;53.152;5.846;2023-02-28T08:14:10;2.70;94.20
52787;DHT22;38661;53.152;5.846;2023-02-28T08:16:36;2.70;94.10
52787;DHT22;38661;53.152;5.846;2023-02-28T08:19:02;2.70;94.10
52787;DHT22;38661;53.152;5.846;2023-02-28T08:21:28;2.80;94.20
52787;DHT22;38661;53.152;5.846;2023-02-28T08:23:53;2.70;94.40
52787;DHT22;38661;53.152;5.846;2023-02-28T08:26:20;2.80;94.40
52787;DHT22;38661;53.152;5.846;2023-02-28T08:28:46;2.80;94.40
52787;DHT22;38661;53.152;5.846;2023-02-28T08:31:14;2.80;94.50
52787;DHT22;38661;53.152;5.846;2023-02-28T08:33:40;2.80;94.50
52787;DHT22;38661;53.152;5.846;2023-02-28T08:36:08;2.80;94.10
52787;DHT22;38661;53.152;5.846;2023-02-28T08:38:34;2.80;94.40
52787;DHT22;38661;53.152;5.846;2023-02-28T08:41:02;2.80;94.30
52787;DHT22;38661;53.152;5.846;2023-02-28T08:43:29;2.90;94.40
52787;DHT22;38661;53.152;5.846;2023-02-28T08:45:55;2.90;94.40
52787;DHT22;38661;53.152;5.846;2023-02-28T08:48:26;2.90;94.40
52787;DHT22;38661;53.152;5.846;2023-02-28T08:51:00;2.90;94.50
52787;DHT22;38661;53.152;5.846;2023-02-28T08:53:26;2.90;94.40
52787;DHT22;38661;53.152;5.846;2023-02-28T08:55:59;2.80;94.60
52787;DHT22;38661;53.152;5.846;2023-02-28T08:58:26;2.80;94.40
52787;DHT22;38661;53.152;5.846;2023-02-28T09:00:52;2.90;94.40
52787;DHT22;38661;53.152;5.846;2023-02-28T09:03:18;2.90;94.40
52787;DHT22;38661;53.152;5.846;2023-02-28T09:05:55;3.00;94.40
52787;DHT22;38661;53.152;5.846;2023-02-28T09:08:21;3.00;94.40
52787;DHT22;38661;53.152;5.846;2023-02-28T09:10:46;3.10;94.60
52787;DHT22;38661;53.152;5.846;2023-02-28T09:13:12;3.10;94.40
52787;DHT22;38661;53.152;5.846;2023-02-28T09:15:39;3.10;94.30
52787;DHT22;38661;53.152;5.846;2023-02-28T09:18:04;3.10;94.40
52787;DHT22;38661;53.152;5.846;2023-02-28T09:20:30;3.10;94.00
52787;DHT22;38661;53.152;5.846;2023-02-28T09:22:56;3.10;94.00
52787;DHT22;38661;53.152;5.846;2023-02-28T09:25:21;3.20;93.90
52787;DHT22;38661;53.152;5.846;2023-02-28T09:27:47;3.30;93.70
52787;DHT22;38661;53.152;5.846;2023-02-28T09:30:13;3.30;93.70
52787;DHT22;38661;53.152;5.846;2023-02-28T09:32:39;3.40;93.60
52787;DHT22;38661;53.152;5.846;2023-02-28T09:35:05;3.40;93.50
52787;DHT22;38661;53.152;5.846;2023-02-28T09:37:31;3.40;93.50
52787;DHT22;38661;53.152;5.846;2023-02-28T09:39:57;3.50;93.60
52787;DHT22;38661;53.152;5.846;2023-02-28T09:42:32;3.50;93.50
52787;DHT22;38661;53.152;5.846;2023-02-28T09:45:02;3.60;93.60
52787;DHT22;38661;53.152;5.846;2023-02-28T09:47:36;3.60;93.40
52787;DHT22;38661;53.152;5.846;2023-02-28T09:52:49;3.70;93.30
52787;DHT22;38661;53.152;5.846;2023-02-28T09:55:25;3.70;93.30
52787;DHT22;38661;53.152;5.846;2023-02-28T09:57:54;3.70;93.30
52787;DHT22;38661;53.152;5.846;2023-02-28T10:00:33;3.80;93.40
52787;DHT22;38661;53.152;5.846;2023-02-28T10:03:04;3.90;93.20
52787;DHT22;38661;53.152;5.846;2023-02-28T10:05:41;4.00;93.10
52787;DHT22;38661;53.152;5.846;2023-02-28T10:08:15;4.10;93.00
52787;DHT22;38661;53.152;5.846;2023-02-28T10:10:48;4.10;92.80
52787;DHT22;38661;53.152;5.846;2023-02-28T10:13:38;4.10;92.60
52787;DHT22;38661;53.152;5.846;2023-02-28T10:16:10;4.10;92.60
52787;DHT22;38661;53.152;5.846;2023-02-28T10:18:47;4.20;92.50
52787;DHT22;38661;53.152;5.846;2023-02-28T10:21:19;4.30;92.60
52787;DHT22;38661;53.152;5.846;2023-02-28T10:23:46;4.40;92.30
52787;DHT22;38661;53.152;5.846;2023-02-28T10:26:16;4.60;92.20
52787;DHT22;38661;53.152;5.846;2023-02-28T10:28:42;4.60;91.90
52787;DHT22;38661;53.152;5.846;2023-02-28T10:31:17;4.80;91.70
52787;DHT22;38661;53.152;5.846;2023-02-28T10:33:43;4.80;90.50
52787;DHT22;38661;53.152;5.846;2023-02-28T10:36:14;5.00;90.00
52787;DHT22;38661;53.152;5.846;2023-02-28T10:38:43;5.20;89.20
52787;DHT22;38661;53.152;5.846;2023-02-28T10:41:28;5.50;89.90
52787;DHT22;38661;53.152;5.846;2023-02-28T10:44:14;5.60;89.50
52787;DHT22;38661;53.152;5.846;2023-02-28T10:46:41;5.80;89.30
52787;DHT22;38661;53.152;5.846;2023-02-28T10:49:26;6.00;86.50
52787;DHT22;38661;53.152;5.846;2023-02-28T10:51:56;6.10;88.00
52787;DHT22;38661;53.152;5.846;2023-02-28T10:54:31;6.30;86.80
52787;DHT22;38661;53.152;5.846;2023-02-28T10:57:16;6.50;86.10
52787;DHT22;38661;53.152;5.846;2023-02-28T10:59:43;6.70;85.70
52787;DHT22;38661;53.152;5.846;2023-02-28T11:02:30;6.70;84.80
52787;DHT22;38661;53.152;5.846;2023-02-28T11:04:56;6.90;84.20
52787;DHT22;38661;53.152;5.846;2023-02-28T11:07:23;7.00;78.70
52787;DHT22;38661;53.152;5.846;2023-02-28T11:09:52;7.10;81.20
52787;DHT22;38661;53.152;5.846;2023-02-28T11:14:57;7.20;71.30
52787;DHT22;38661;53.152;5.846;2023-02-28T11:17:28;7.40;78.20
52787;DHT22;38661;53.152;5.846;2023-02-28T11:20:04;7.70;79.40
52787;DHT22;38661;53.152;5.846;2023-02-28T11:22:36;8.00;78.60
52787;DHT22;38661;53.152;5.846;2023-02-28T11:25:12;7.90;74.80
52787;DHT22;38661;53.152;5.846;2023-02-28T11:27:46;8.10;76.90
52787;DHT22;38661;53.152;5.846;2023-02-28T11:30:44;8.40;78.10
52787;DHT22;38661;53.152;5.846;2023-02-28T11:36:08;8.60;75.00
52787;DHT22;38661;53.152;5.846;2023-02-28T11:38:35;8.70;74.10
52787;DHT22;38661;53.152;5.846;2023-02-28T11:46:58;9.10;75.60
52787;DHT22;38661;53.152;5.846;2023-02-28T11:55:26;8.90;69.50
52787;DHT22;38661;53.152;5.846;2023-02-28T11:58:14;9.00;68.90
52787;DHT22;38661;53.152;5.846;2023-02-28T12:04:12;9.30;70.00
52787;DHT22;38661;53.152;5.846;2023-02-28T12:09:35;9.70;70.80
52787;DHT22;38661;53.152;5.846;2023-02-28T12:12:28;9.90;69.00
52787;DHT22;38661;53.152;5.846;2023-02-28T12:29:16;10.70;65.10
52787;DHT22;38661;53.152;5.846;2023-02-28T12:32:11;10.80;64.90
52787;DHT22;38661;53.152;5.846;2023-02-28T12:34:41;11.00;65.30
52787;DHT22;38661;53.152;5.846;2023-02-28T12:37:12;11.10;65.20
52787;DHT22;38661;53.152;5.846;2023-02-28T12:39:45;11.40;65.50
52787;DHT22;38661;53.152;5.846;2023-02-28T12:42:36;11.50;65.20
52787;DHT22;38661;53.152;5.846;2023-02-28T12:47:43;11.70;62.60
52787;DHT22;38661;53.152;5.846;2023-02-28T12:50:11;11.80;63.50
52787;DHT22;38661;53.152;5.846;2023-02-28T12:52:42;11.90;62.30
52787;DHT22;38661;53.152;5.846;2023-02-28T12:55:23;12.10;61.60
52787;DHT22;38661;53.152;5.846;2023-02-28T12:58:11;12.30;59.50
52787;DHT22;38661;53.152;5.846;2023-02-28T13:01:06;12.40;59.80
52787;DHT22;38661;53.152;5.846;2023-02-28T13:09:12;11.90;60.00
52787;DHT22;38661;53.152;5.846;2023-02-28T13:11:45;12.00;59.70
52787;DHT22;38661;53.152;5.846;2023-02-28T13:14:38;12.00;58.80
52787;DHT22;38661;53.152;5.846;2023-02-28T13:19:37;11.90;60.10
52787;DHT22;38661;53.152;5.846;2023-02-28T13:22:04;12.00;60.30
52787;DHT22;38661;53.152;5.846;2023-02-28T13:29:35;11.10;60.10
52787;DHT22;38661;53.152;5.846;2023-02-28T13:45:28;10.10;61.60
52787;DHT22;38661;53.152;5.846;2023-02-28T13:48:15;10.40;62.50
52787;DHT22;38661;53.152;5.846;2023-02-28T13:50:42;10.90;60.80
52787;DHT22;38661;53.152;5.846;2023-02-28T14:06:37;12.90;56.40
52787;DHT22;38661;53.152;5.846;2023-02-28T14:09:28;13.00;55.30
52787;DHT22;38661;53.152;5.846;2023-02-28T14:11:54;12.60;54.10
52787;DHT22;38661;53.152;5.846;2023-02-28T14:17:14;12.40;55.60
52787;DHT22;38661;53.152;5.846;2023-02-28T14:19:44;12.30;56.20
52787;DHT22;38661;53.152;5.846;2023-02-28T14:25:38;11.70;57.20
52787;DHT22;38661;53.152;5.846;2023-02-28T14:31:22;10.80;58.10
52787;DHT22;38661;53.152;5.846;2023-02-28T14:36:44;10.50;59.50
52787;DHT22;38661;53.152;5.846;2023-02-28T14:39:16;10.60;60.20
52787;DHT22;38661;53.152;5.846;2023-02-28T14:41:44;11.00;60.10
52787;DHT22;38661;53.152;5.846;2023-02-28T14:44:22;11.00;59.10
52787;DHT22;38661;53.152;5.846;2023-02-28T14:46:53;11.30;59.00
52787;DHT22;38661;53.152;5.846;2023-02-28T14:49:35;11.60;58.30
52787;DHT22;38661;53.152;5.846;2023-02-28T14:54:31;11.80;57.90
52787;DHT22;38661;53.152;5.846;2023-02-28T14:56:58;11.70;58.40
52787;DHT22;38661;53.152;5.846;2023-02-28T14:59:32;11.90;57.90
52787;DHT22;38661;53.152;5.846;2023-02-28T15:04:58;12.40;55.80
52787;DHT22;38661;53.152;5.846;2023-02-28T15:07:25;12.60;56.00
52787;DHT22;38661;53.152;5.846;2023-02-28T15:10:22;12.70;55.50
52787;DHT22;38661;53.152;5.846;2023-02-28T15:12:53;12.90;54.10
52787;DHT22;38661;53.152;5.846;2023-02-28T15:15:24;13.10;54.20
52787;DHT22;38661;53.152;5.846;2023-02-28T15:17:54;13.10;54.60
52787;DHT22;38661;53.152;5.846;2023-02-28T15:20:23;13.30;53.90
52787;DHT22;38661;53.152;5.846;2023-02-28T15:22:50;13.40;52.00
52787;DHT22;38661;53.152;5.846;2023-02-28T15:25:20;13.50;52.30
52787;DHT22;38661;53.152;5.846;2023-02-28T15:27:52;13.60;53.00
52787;DHT22;38661;53.152;5.846;2023-02-28T15:30:27;13.70;50.90
52787;DHT22;38661;53.152;5.846;2023-02-28T15:33:04;13.80;51.10
52787;DHT22;38661;53.152;5.846;2023-02-28T15:35:32;13.90;50.60
52787;DHT22;38661;53.152;5.846;2023-02-28T15:38:25;14.00;51.40
52787;DHT22;38661;53.152;5.846;2023-02-28T15:40:52;13.90;51.00
52787;DHT22;38661;53.152;5.846;2023-02-28T15:43:32;13.80;50.20
52787;DHT22;38661;53.152;5.846;2023-02-28T15:48:35;13.90;49.90
52787;DHT22;38661;53.152;5.846;2023-02-28T15:53:48;13.70;49.80
52787;DHT22;38661;53.152;5.846;2023-02-28T15:56:25;13.70;50.20
52787;DHT22;38661;53.152;5.846;2023-02-28T15:59:15;13.40;50.90
52787;DHT22;38661;53.152;5.846;2023-02-28T16:01:41;13.00;51.90
52787;DHT22;38661;53.152;5.846;2023-02-28T16:04:17;12.70;52.70
52787;DHT22;38661;53.152;5.846;2023-02-28T16:09:23;12.50;52.80
52787;DHT22;38661;53.152;5.846;2023-02-28T16:11:52;12.30;53.70
52787;DHT22;38661;53.152;5.846;2023-02-28T16:14:21;12.30;53.90
52787;DHT22;38661;53.152;5.846;2023-02-28T16:16:53;12.10;54.20
52787;DHT22;38661;53.152;5.846;2023-02-28T16:19:20;12.10;54.10
52787;DHT22;38661;53.152;5.846;2023-02-28T16:21:47;11.90;54.40
52787;DHT22;38661;53.152;5.846;2023-02-28T16:24:12;11.50;55.60
52787;DHT22;38661;53.152;5.846;2023-02-28T16:26:44;11.30;56.00
52787;DHT22;38661;53.152;5.846;2023-02-28T16:29:18;11.10;56.40
52787;DHT22;38661;53.152;5.846;2023-02-28T16:31:45;11.10;57.30
52787;DHT22;38661;53.152;5.846;2023-02-28T16:34:10;11.00;57.50
52787;DHT22;38661;53.152;5.846;2023-02-28T16:36:36;10.80;57.60
52787;DHT22;38661;53.152;5.846;2023-02-28T16:39:02;10.70;58.20
52787;DHT22;38661;53.152;5.846;2023-02-28T16:41:28;10.50;58.90
52787;DHT22;38661;53.152;5.846;2023-02-28T16:43:55;10.30;59.30
52787;DHT22;38661;53.152;5.846;2023-02-28T16:46:33;10.10;59.50
52787;DHT22;38661;53.152;5.846;2023-02-28T16:48:59;9.70;60.20
52787;DHT22;38661;53.152;5.846;2023-02-28T16:51:24;9.30;61.00
52787;DHT22;38661;53.152;5.846;2023-02-28T16:53:50;9.00;62.40
52787;DHT22;38661;53.152;5.846;2023-02-28T16:56:22;8.70;63.10
52787;DHT22;38661;53.152;5.846;2023-02-28T16:58:49;8.50;63.70
52787;DHT22;38661;53.152;5.846;2023-02-28T17:01:16;8.30;64.30
52787;DHT22;38661;53.152;5.846;2023-02-28T17:03:48;8.00;65.00
52787;DHT22;38661;53.152;5.846;2023-02-28T17:06:20;7.70;66.10
52787;DHT22;38661;53.152;5.846;2023-02-28T17:08:48;7.60;67.60
52787;DHT22;38661;53.152;5.846;2023-02-28T17:11:14;7.40;67.90
52787;DHT22;38661;53.152;5.846;2023-02-28T17:13:39;7.20;69.00
52787;DHT22;38661;53.152;5.846;2023-02-28T17:16:05;7.20;69.60
52787;DHT22;38661;53.152;5.846;2023-02-28T17:18:31;7.10;70.80
52787;DHT22;38661;53.152;5.846;2023-02-28T17:21:00;7.10;72.10
52787;DHT22;38661;53.152;5.846;2023-02-28T17:23:26;7.00;72.40
52787;DHT22;38661;53.152;5.846;2023-02-28T17:25:51;6.80;72.80
52787;DHT22;38661;53.152;5.846;2023-02-28T17:28:21;6.70;73.10
52787;DHT22;38661;53.152;5.846;2023-02-28T17:30:47;6.50;73.50
52787;DHT22;38661;53.152;5.846;2023-02-28T17:33:14;6.40;73.90
52787;DHT22;38661;53.152;5.846;2023-02-28T17:35:40;6.30;74.80
52787;DHT22;38661;53.152;5.846;2023-02-28T17:38:18;6.10;74.50
52787;DHT22;38661;53.152;5.846;2023-02-28T17:40:44;6.10;74.80
52787;DHT22;38661;53.152;5.846;2023-02-28T17:43:10;6.00;75.00
52787;DHT22;38661;53.152;5.846;2023-02-28T17:45:36;5.90;75.80
52787;DHT22;38661;53.152;5.846;2023-02-28T17:48:02;5.80;76.70
52787;DHT22;38661;53.152;5.846;2023-02-28T17:50:27;5.80;77.40
52787;DHT22;38661;53.152;5.846;2023-02-28T17:52:53;5.70;77.90
52787;DHT22;38661;53.152;5.846;2023-02-28T17:55:19;5.60;78.20
52787;DHT22;38661;53.152;5.846;2023-02-28T17:57:45;5.60;78.20
52787;DHT22;38661;53.152;5.846;2023-02-28T18:00:12;5.50;77.60
52787;DHT22;38661;53.152;5.846;2023-02-28T18:02:39;5.40;77.90
52787;DHT22;38661;53.152;5.846;2023-02-28T18:05:05;5.30;77.90
52787;DHT22;38661;53.152;5.846;2023-02-28T18:07:31;5.30;78.00
52787;DHT22;38661;53.152;5.846;2023-02-28T18:09:56;5.10;78.20
52787;DHT22;38661;53.152;5.846;2023-02-28T18:12:22;5.10;78.20
52787;DHT22;38661;53.152;5.846;2023-02-28T18:14:48;5.00;78.80
52787;DHT22;38661;53.152;5.846;2023-02-28T18:17:14;5.00;78.70
52787;DHT22;38661;53.152;5.846;2023-02-28T18:19:39;4.90;79.40
52787;DHT22;38661;53.152;5.846;2023-02-28T18:22:05;4.70;79.50
52787;DHT22;38661;53.152;5.846;2023-02-28T18:24:33;4.70;79.50